sensor_id;sensor_type;location;lat;lon;timestamp;P1;durP1;ratioP1;P2;durP2;ratioP2
23642;SDS011;11998;55.788;37.572;2023-04-25T00:00:28;14.38;;;7.63;;
23642;SDS011;11998;55.788;37.572;2023-04-25T00:01:28;17.27;;;8.07;;
23642;SDS011;11998;55.788;37.572;2023-04-25T00:02:29;17.00;;;6.60;;
23642;SDS011;11998;55.788;37.572;2023-04-25T00:03:32;15.10;;;7.53;;
23642;SDS011;11998;55.788;37.572;2023-04-25T00:04:32;17.33;;;7.32;;
23642;SDS011;11998;55.788;37.572;2023-04-25T00:05:33;13.88;;;6.72;;
23642;SDS011;11998;55.788;37.572;2023-04-25T00:06:34;10.48;;;7.13;;
23642;SDS011;11998;55.788;37.572;2023-04-25T00:07:36;13.07;;;6.82;;
23642;SDS011;11998;55.788;37.572;2023-04-25T00:08:36;15.75;;;6.80;;
23642;SDS011;11998;55.788;37.572;2023-04-25T00:09:37;15.05;;;6.85;;
23642;SDS011;11998;55.788;37.572;2023-04-25T00:10:38;10.68;;;6.35;;
23642;SDS011;11998;55.788;37.572;2023-04-25T00:11:39;11.70;;;6.70;;
23642;SDS011;11998;55.788;37.572;2023-04-25T00:12:40;17.58;;;6.80;;
23642;SDS011;11998;55.788;37.572;2023-04-25T00:13:41;13.57;;;6.22;;
23642;SDS011;11998;55.788;37.572;2023-04-25T00:14:42;11.52;;;6.60;;
23642;SDS011;11998;55.788;37.572;2023-04-25T00:15:44;11.63;;;6.23;;
23642;SDS011;11998;55.788;37.572;2023-04-25T00:16:46;17.73;;;6.63;;
23642;SDS011;11998;55.788;37.572;2023-04-25T00:17:46;10.68;;;6.35;;
23642;SDS011;11998;55.788;37.572;2023-04-25T00:18:47;10.07;;;6.00;;
23642;SDS011;11998;55.788;37.572;2023-04-25T00:19:51;17.77;;;6.38;;
23642;SDS011;11998;55.788;37.572;2023-04-25T00:20:52;11.55;;;5.93;;
23642;SDS011;11998;55.788;37.572;2023-04-25T00:21:53;12.63;;;6.35;;
23642;SDS011;11998;55.788;37.572;2023-04-25T00:22:54;13.40;;;6.22;;
23642;SDS011;11998;55.788;37.572;2023-04-25T00:23:55;15.63;;;6.18;;
23642;SDS011;11998;55.788;37.572;2023-04-25T00:24:56;14.05;;;6.30;;
23642;SDS011;11998;55.788;37.572;2023-04-25T00:26:00;13.52;;;6.72;;
23642;SDS011;11998;55.788;37.572;2023-04-25T00:27:00;9.68;;;5.80;;
23642;SDS011;11998;55.788;37.572;2023-04-25T00:28:01;24.23;;;6.95;;
23642;SDS011;11998;55.788;37.572;2023-04-25T00:29:01;8.70;;;5.68;;
23642;SDS011;11998;55.788;37.572;2023-04-25T00:30:02;14.63;;;6.05;;
23642;SDS011;11998;55.788;37.572;2023-04-25T00:31:03;11.02;;;6.43;;
23642;SDS011;11998;55.788;37.572;2023-04-25T00:32:04;11.32;;;6.10;;
23642;SDS011;11998;55.788;37.572;2023-04-25T00:33:04;17.90;;;6.68;;
23642;SDS011;11998;55.788;37.572;2023-04-25T00:34:06;16.77;;;5.82;;
23642;SDS011;11998;55.788;37.572;2023-04-25T00:35:07;14.82;;;6.25;;
23642;SDS011;11998;55.788;37.572;2023-04-25T00:36:08;10.60;;;5.85;;
23642;SDS011;11998;55.788;37.572;2023-04-25T00:37:10;12.05;;;5.90;;
23642;SDS011;11998;55.788;37.572;2023-04-25T00:38:10;13.48;;;5.65;;
23642;SDS011;11998;55.788;37.572;2023-04-25T00:39:11;15.03;;;5.30;;
23642;SDS011;11998;55.788;37.572;2023-04-25T00:40:13;13.38;;;5.82;;
23642;SDS011;11998;55.788;37.572;2023-04-25T00:41:14;10.38;;;5.32;;
23642;SDS011;11998;55.788;37.572;2023-04-25T00:42:15;8.18;;;5.28;;
23642;SDS011;11998;55.788;37.572;2023-04-25T00:43:16;10.00;;;5.35;;
23642;SDS011;11998;55.788;37.572;2023-04-25T00:44:16;13.23;;;5.75;;
23642;SDS011;11998;55.788;37.572;2023-04-25T00:45:17;12.55;;;5.15;;
23642;SDS011;11998;55.788;37.572;2023-04-25T00:46:18;10.80;;;5.85;;
23642;SDS011;11998;55.788;37.572;2023-04-25T00:47:18;11.95;;;5.50;;
23642;SDS011;11998;55.788;37.572;2023-04-25T00:48:22;13.90;;;5.53;;
23642;SDS011;11998;55.788;37.572;2023-04-25T00:49:23;7.13;;;5.57;;
23642;SDS011;11998;55.788;37.572;2023-04-25T00:50:24;9.82;;;4.85;;
23642;SDS011;11998;55.788;37.572;2023-04-25T00:51:24;11.30;;;4.32;;
23642;SDS011;11998;55.788;37.572;2023-04-25T00:52:26;12.23;;;4.70;;
23642;SDS011;11998;55.788;37.572;2023-04-25T00:53:28;11.03;;;4.73;;
23642;SDS011;11998;55.788;37.572;2023-04-25T00:54:30;13.82;;;5.03;;
23642;SDS011;11998;55.788;37.572;2023-04-25T00:55:30;11.82;;;5.20;;
23642;SDS011;11998;55.788;37.572;2023-04-25T00:56:31;11.48;;;5.28;;
23642;SDS011;11998;55.788;37.572;2023-04-25T00:57:32;13.32;;;5.25;;
23642;SDS011;11998;55.788;37.572;2023-04-25T00:58:33;12.95;;;5.45;;
23642;SDS011;11998;55.788;37.572;2023-04-25T00:59:33;12.18;;;4.95;;
23642;SDS011;11998;55.788;37.572;2023-04-25T01:00:35;10.02;;;5.18;;
23642;SDS011;11998;55.788;37.572;2023-04-25T01:01:36;16.30;;;5.03;;
23642;SDS011;11998;55.788;37.572;2023-04-25T01:02:39;11.90;;;5.43;;
23642;SDS011;11998;55.788;37.572;2023-04-25T01:03:40;12.38;;;5.55;;
23642;SDS011;11998;55.788;37.572;2023-04-25T01:04:41;12.52;;;5.00;;
23642;SDS011;11998;55.788;37.572;2023-04-25T01:05:41;12.38;;;5.25;;
23642;SDS011;11998;55.788;37.572;2023-04-25T01:06:42;13.43;;;4.95;;
23642;SDS011;11998;55.788;37.572;2023-04-25T01:07:43;12.85;;;5.20;;
23642;SDS011;11998;55.788;37.572;2023-04-25T01:08:43;10.90;;;5.00;;
23642;SDS011;11998;55.788;37.572;2023-04-25T01:09:44;13.85;;;4.90;;
23642;SDS011;11998;55.788;37.572;2023-04-25T01:10:46;8.67;;;4.47;;
23642;SDS011;11998;55.788;37.572;2023-04-25T01:11:46;14.63;;;5.03;;
23642;SDS011;11998;55.788;37.572;2023-04-25T01:12:47;13.67;;;4.87;;
23642;SDS011;11998;55.788;37.572;2023-04-25T01:13:47;14.30;;;5.30;;
23642;SDS011;11998;55.788;37.572;2023-04-25T01:14:48;13.07;;;5.40;;
23642;SDS011;11998;55.788;37.572;2023-04-25T01:15:49;7.82;;;5.28;;
23642;SDS011;11998;55.788;37.572;2023-04-25T01:16:49;13.23;;;5.97;;
23642;SDS011;11998;55.788;37.572;2023-04-25T01:17:50;9.35;;;5.45;;
23642;SDS011;11998;55.788;37.572;2023-04-25T01:18:51;13.18;;;5.75;;
23642;SDS011;11998;55.788;37.572;2023-04-25T01:19:51;13.68;;;5.88;;
23642;SDS011;11998;55.788;37.572;2023-04-25T01:20:52;10.13;;;5.13;;
23642;SDS011;11998;55.788;37.572;2023-04-25T01:21:54;9.32;;;5.32;;
23642;SDS011;11998;55.788;37.572;2023-04-25T01:22:54;10.27;;;5.25;;
23642;SDS011;11998;55.788;37.572;2023-04-25T01:23:55;8.35;;;5.00;;
23642;SDS011;11998;55.788;37.572;2023-04-25T01:24:57;12.82;;;5.18;;
23642;SDS011;11998;55.788;37.572;2023-04-25T01:25:58;13.77;;;5.10;;
23642;SDS011;11998;55.788;37.572;2023-04-25T01:27:00;9.40;;;5.10;;
23642;SDS011;11998;55.788;37.572;2023-04-25T01:28:02;11.52;;;4.63;;
23642;SDS011;11998;55.788;37.572;2023-04-25T01:29:03;15.35;;;5.63;;
23642;SDS011;11998;55.788;37.572;2023-04-25T01:30:05;10.00;;;5.30;;
23642;SDS011;11998;55.788;37.572;2023-04-25T01:31:09;8.77;;;5.18;;
23642;SDS011;11998;55.788;37.572;2023-04-25T01:32:11;10.27;;;5.90;;
23642;SDS011;11998;55.788;37.572;2023-04-25T01:33:13;11.60;;;5.68;;
23642;SDS011;11998;55.788;37.572;2023-04-25T01:34:15;12.07;;;6.00;;
23642;SDS011;11998;55.788;37.572;2023-04-25T01:35:16;16.27;;;5.68;;
23642;SDS011;11998;55.788;37.572;2023-04-25T01:36:16;10.15;;;5.85;;
23642;SDS011;11998;55.788;37.572;2023-04-25T01:37:18;14.40;;;6.53;;
23642;SDS011;11998;55.788;37.572;2023-04-25T01:38:19;13.85;;;6.57;;
23642;SDS011;11998;55.788;37.572;2023-04-25T01:39:19;13.50;;;6.75;;
23642;SDS011;11998;55.788;37.572;2023-04-25T01:40:20;12.25;;;6.50;;
23642;SDS011;11998;55.788;37.572;2023-04-25T01:41:22;12.45;;;7.13;;
23642;SDS011;11998;55.788;37.572;2023-04-25T01:42:23;15.38;;;6.80;;
23642;SDS011;11998;55.788;37.572;2023-04-25T01:43:23;15.50;;;7.20;;
23642;SDS011;11998;55.788;37.572;2023-04-25T01:44:24;13.15;;;6.82;;
23642;SDS011;11998;55.788;37.572;2023-04-25T01:45:25;18.60;;;7.27;;
23642;SDS011;11998;55.788;37.572;2023-04-25T01:46:26;11.70;;;6.20;;
23642;SDS011;11998;55.788;37.572;2023-04-25T01:47:27;18.77;;;7.37;;
23642;SDS011;11998;55.788;37.572;2023-04-25T01:48:28;18.35;;;7.30;;
23642;SDS011;11998;55.788;37.572;2023-04-25T01:49:28;11.77;;;6.80;;
23642;SDS011;11998;55.788;37.572;2023-04-25T01:50:29;14.80;;;6.78;;
23642;SDS011;11998;55.788;37.572;2023-04-25T01:51:30;15.97;;;7.27;;
23642;SDS011;11998;55.788;37.572;2023-04-25T01:52:31;11.03;;;6.70;;
23642;SDS011;11998;55.788;37.572;2023-04-25T01:53:32;17.92;;;7.95;;
23642;SDS011;11998;55.788;37.572;2023-04-25T01:54:32;13.85;;;7.40;;
23642;SDS011;11998;55.788;37.572;2023-04-25T01:55:33;14.82;;;7.35;;
23642;SDS011;11998;55.788;37.572;2023-04-25T01:56:36;21.77;;;7.73;;
23642;SDS011;11998;55.788;37.572;2023-04-25T01:57:37;18.83;;;7.15;;
23642;SDS011;11998;55.788;37.572;2023-04-25T01:58:38;17.10;;;7.40;;
23642;SDS011;11998;55.788;37.572;2023-04-25T01:59:39;18.90;;;6.65;;
23642;SDS011;11998;55.788;37.572;2023-04-25T02:00:40;16.05;;;7.00;;
23642;SDS011;11998;55.788;37.572;2023-04-25T02:01:41;13.07;;;6.80;;
23642;SDS011;11998;55.788;37.572;2023-04-25T02:02:42;15.13;;;6.18;;
23642;SDS011;11998;55.788;37.572;2023-04-25T02:03:42;17.23;;;6.97;;
23642;SDS011;11998;55.788;37.572;2023-04-25T02:04:43;17.25;;;6.65;;
23642;SDS011;11998;55.788;37.572;2023-04-25T02:05:44;12.55;;;6.60;;
23642;SDS011;11998;55.788;37.572;2023-04-25T02:06:44;12.93;;;6.85;;
23642;SDS011;11998;55.788;37.572;2023-04-25T02:07:45;18.08;;;7.20;;
23642;SDS011;11998;55.788;37.572;2023-04-25T02:08:46;14.55;;;6.88;;
23642;SDS011;11998;55.788;37.572;2023-04-25T02:09:47;19.13;;;7.50;;
23642;SDS011;11998;55.788;37.572;2023-04-25T02:10:48;15.20;;;6.90;;
23642;SDS011;11998;55.788;37.572;2023-04-25T02:11:48;14.85;;;7.88;;
23642;SDS011;11998;55.788;37.572;2023-04-25T02:12:49;17.13;;;8.65;;
23642;SDS011;11998;55.788;37.572;2023-04-25T02:13:49;16.52;;;9.02;;
23642;SDS011;11998;55.788;37.572;2023-04-25T02:14:50;24.58;;;14.50;;
23642;SDS011;11998;55.788;37.572;2023-04-25T02:15:50;27.90;;;15.63;;
23642;SDS011;11998;55.788;37.572;2023-04-25T02:16:51;26.23;;;14.13;;
23642;SDS011;11998;55.788;37.572;2023-04-25T02:17:52;18.65;;;12.38;;
23642;SDS011;11998;55.788;37.572;2023-04-25T02:18:53;18.02;;;11.43;;
23642;SDS011;11998;55.788;37.572;2023-04-25T02:19:54;18.05;;;11.48;;
23642;SDS011;11998;55.788;37.572;2023-04-25T02:20:54;18.48;;;10.07;;
23642;SDS011;11998;55.788;37.572;2023-04-25T02:21:55;17.73;;;7.22;;
23642;SDS011;11998;55.788;37.572;2023-04-25T02:22:57;16.58;;;8.05;;
23642;SDS011;11998;55.788;37.572;2023-04-25T02:23:57;19.73;;;8.10;;
23642;SDS011;11998;55.788;37.572;2023-04-25T02:24:58;19.30;;;7.80;;
23642;SDS011;11998;55.788;37.572;2023-04-25T02:25:58;14.82;;;7.18;;
23642;SDS011;11998;55.788;37.572;2023-04-25T02:26:59;19.87;;;7.20;;
23642;SDS011;11998;55.788;37.572;2023-04-25T02:28:00;16.42;;;6.68;;
23642;SDS011;11998;55.788;37.572;2023-04-25T02:29:00;14.80;;;7.65;;
23642;SDS011;11998;55.788;37.572;2023-04-25T02:30:01;13.90;;;7.13;;
23642;SDS011;11998;55.788;37.572;2023-04-25T02:31:01;11.20;;;6.53;;
23642;SDS011;11998;55.788;37.572;2023-04-25T02:32:02;13.10;;;7.07;;
23642;SDS011;11998;55.788;37.572;2023-04-25T02:33:03;12.52;;;6.38;;
23642;SDS011;11998;55.788;37.572;2023-04-25T02:34:03;12.13;;;6.18;;
23642;SDS011;11998;55.788;37.572;2023-04-25T02:35:04;13.45;;;5.90;;
23642;SDS011;11998;55.788;37.572;2023-04-25T02:36:06;12.18;;;5.82;;
23642;SDS011;11998;55.788;37.572;2023-04-25T02:37:07;11.18;;;5.38;;
23642;SDS011;11998;55.788;37.572;2023-04-25T02:38:08;14.13;;;5.68;;
23642;SDS011;11998;55.788;37.572;2023-04-25T02:39:09;12.88;;;6.00;;
23642;SDS011;11998;55.788;37.572;2023-04-25T02:40:10;8.48;;;6.55;;
23642;SDS011;11998;55.788;37.572;2023-04-25T02:41:11;13.00;;;5.93;;
23642;SDS011;11998;55.788;37.572;2023-04-25T02:42:11;11.30;;;6.18;;
23642;SDS011;11998;55.788;37.572;2023-04-25T02:43:12;12.88;;;6.32;;
23642;SDS011;11998;55.788;37.572;2023-04-25T02:44:12;15.27;;;6.60;;
23642;SDS011;11998;55.788;37.572;2023-04-25T02:45:13;12.70;;;6.00;;
23642;SDS011;11998;55.788;37.572;2023-04-25T02:46:14;13.73;;;6.35;;
23642;SDS011;11998;55.788;37.572;2023-04-25T02:47:14;17.38;;;6.50;;
23642;SDS011;11998;55.788;37.572;2023-04-25T02:48:15;19.17;;;6.93;;
23642;SDS011;11998;55.788;37.572;2023-04-25T02:49:16;15.40;;;6.55;;
23642;SDS011;11998;55.788;37.572;2023-04-25T02:50:16;15.13;;;5.97;;
23642;SDS011;11998;55.788;37.572;2023-04-25T02:51:18;12.93;;;6.43;;
23642;SDS011;11998;55.788;37.572;2023-04-25T02:52:19;16.98;;;6.68;;
23642;SDS011;11998;55.788;37.572;2023-04-25T02:53:19;12.85;;;6.32;;
23642;SDS011;11998;55.788;37.572;2023-04-25T02:54:20;15.45;;;8.50;;
23642;SDS011;11998;55.788;37.572;2023-04-25T02:55:20;20.20;;;8.80;;
23642;SDS011;11998;55.788;37.572;2023-04-25T02:56:22;22.58;;;10.52;;
23642;SDS011;11998;55.788;37.572;2023-04-25T02:57:22;22.95;;;11.45;;
23642;SDS011;11998;55.788;37.572;2023-04-25T02:58:23;19.80;;;10.00;;
23642;SDS011;11998;55.788;37.572;2023-04-25T02:59:23;19.92;;;9.18;;
23642;SDS011;11998;55.788;37.572;2023-04-25T03:00:24;22.70;;;9.65;;
23642;SDS011;11998;55.788;37.572;2023-04-25T03:01:25;28.98;;;14.10;;
23642;SDS011;11998;55.788;37.572;2023-04-25T03:02:25;28.05;;;15.07;;
23642;SDS011;11998;55.788;37.572;2023-04-25T03:03:26;27.88;;;13.70;;
23642;SDS011;11998;55.788;37.572;2023-04-25T03:04:26;38.70;;;20.40;;
23642;SDS011;11998;55.788;37.572;2023-04-25T03:05:27;38.92;;;19.30;;
23642;SDS011;11998;55.788;37.572;2023-04-25T03:06:28;42.60;;;21.73;;
23642;SDS011;11998;55.788;37.572;2023-04-25T03:07:28;45.88;;;22.17;;
23642;SDS011;11998;55.788;37.572;2023-04-25T03:08:29;45.28;;;24.42;;
23642;SDS011;11998;55.788;37.572;2023-04-25T03:09:34;48.40;;;24.73;;
23642;SDS011;11998;55.788;37.572;2023-04-25T03:10:35;52.70;;;26.98;;
23642;SDS011;11998;55.788;37.572;2023-04-25T03:11:36;55.60;;;28.25;;
23642;SDS011;11998;55.788;37.572;2023-04-25T03:12:38;50.67;;;25.42;;
23642;SDS011;11998;55.788;37.572;2023-04-25T03:13:38;45.67;;;22.05;;
23642;SDS011;11998;55.788;37.572;2023-04-25T03:14:39;37.15;;;18.42;;
23642;SDS011;11998;55.788;37.572;2023-04-25T03:15:40;24.92;;;11.77;;
23642;SDS011;11998;55.788;37.572;2023-04-25T03:16:40;29.95;;;15.15;;
23642;SDS011;11998;55.788;37.572;2023-04-25T03:17:41;22.58;;;12.05;;
23642;SDS011;11998;55.788;37.572;2023-04-25T03:18:41;23.75;;;12.45;;
23642;SDS011;11998;55.788;37.572;2023-04-25T03:19:41;28.70;;;14.82;;
23642;SDS011;11998;55.788;37.572;2023-04-25T03:20:42;28.30;;;14.63;;
23642;SDS011;11998;55.788;37.572;2023-04-25T03:21:43;19.33;;;11.40;;
23642;SDS011;11998;55.788;37.572;2023-04-25T03:22:43;22.27;;;10.27;;
23642;SDS011;11998;55.788;37.572;2023-04-25T03:23:44;21.77;;;10.75;;
23642;SDS011;11998;55.788;37.572;2023-04-25T03:24:45;19.17;;;10.02;;
23642;SDS011;11998;55.788;37.572;2023-04-25T03:25:45;17.65;;;7.55;;
23642;SDS011;11998;55.788;37.572;2023-04-25T03:26:46;11.27;;;7.80;;
23642;SDS011;11998;55.788;37.572;2023-04-25T03:27:46;18.42;;;8.43;;
23642;SDS011;11998;55.788;37.572;2023-04-25T03:28:47;15.43;;;6.50;;
23642;SDS011;11998;55.788;37.572;2023-04-25T03:29:47;15.60;;;6.85;;
23642;SDS011;11998;55.788;37.572;2023-04-25T03:30:48;13.25;;;6.65;;
23642;SDS011;11998;55.788;37.572;2023-04-25T03:31:48;11.27;;;6.70;;
23642;SDS011;11998;55.788;37.572;2023-04-25T03:32:49;11.68;;;5.80;;
23642;SDS011;11998;55.788;37.572;2023-04-25T03:33:49;14.10;;;6.93;;
23642;SDS011;11998;55.788;37.572;2023-04-25T03:34:50;16.20;;;5.60;;
23642;SDS011;11998;55.788;37.572;2023-04-25T03:35:51;12.95;;;6.28;;
23642;SDS011;11998;55.788;37.572;2023-04-25T03:36:51;11.98;;;6.32;;
23642;SDS011;11998;55.788;37.572;2023-04-25T03:37:52;15.00;;;6.10;;
23642;SDS011;11998;55.788;37.572;2023-04-25T03:38:52;12.77;;;5.30;;
23642;SDS011;11998;55.788;37.572;2023-04-25T03:39:53;13.50;;;5.30;;
23642;SDS011;11998;55.788;37.572;2023-04-25T03:40:53;17.30;;;5.72;;
23642;SDS011;11998;55.788;37.572;2023-04-25T03:41:56;12.30;;;5.38;;
23642;SDS011;11998;55.788;37.572;2023-04-25T03:42:56;12.00;;;6.18;;
23642;SDS011;11998;55.788;37.572;2023-04-25T03:43:57;13.98;;;5.70;;
23642;SDS011;11998;55.788;37.572;2023-04-25T03:44:57;12.48;;;5.97;;
23642;SDS011;11998;55.788;37.572;2023-04-25T03:45:58;9.98;;;5.53;;
23642;SDS011;11998;55.788;37.572;2023-04-25T03:46:58;13.15;;;5.70;;
23642;SDS011;11998;55.788;37.572;2023-04-25T03:47:59;13.75;;;6.03;;
23642;SDS011;11998;55.788;37.572;2023-04-25T03:49:00;9.77;;;4.72;;
23642;SDS011;11998;55.788;37.572;2023-04-25T03:50:00;13.93;;;5.10;;
23642;SDS011;11998;55.788;37.572;2023-04-25T03:51:02;12.48;;;5.03;;
23642;SDS011;11998;55.788;37.572;2023-04-25T03:52:03;8.68;;;4.72;;
23642;SDS011;11998;55.788;37.572;2023-04-25T03:53:03;10.85;;;5.10;;
23642;SDS011;11998;55.788;37.572;2023-04-25T03:54:04;11.43;;;5.15;;
23642;SDS011;11998;55.788;37.572;2023-04-25T03:55:05;10.55;;;4.97;;
23642;SDS011;11998;55.788;37.572;2023-04-25T03:56:05;10.80;;;5.47;;
23642;SDS011;11998;55.788;37.572;2023-04-25T03:57:06;10.38;;;5.60;;
23642;SDS011;11998;55.788;37.572;2023-04-25T03:58:07;18.42;;;6.75;;
23642;SDS011;11998;55.788;37.572;2023-04-25T03:59:08;18.80;;;6.18;;
23642;SDS011;11998;55.788;37.572;2023-04-25T04:00:09;7.57;;;4.43;;
23642;SDS011;11998;55.788;37.572;2023-04-25T04:01:10;10.07;;;4.88;;
23642;SDS011;11998;55.788;37.572;2023-04-25T04:02:11;11.43;;;5.15;;
23642;SDS011;11998;55.788;37.572;2023-04-25T04:03:11;25.05;;;10.68;;
23642;SDS011;11998;55.788;37.572;2023-04-25T04:04:12;23.92;;;11.35;;
23642;SDS011;11998;55.788;37.572;2023-04-25T04:05:12;19.92;;;10.15;;
23642;SDS011;11998;55.788;37.572;2023-04-25T04:06:13;19.38;;;11.05;;
23642;SDS011;11998;55.788;37.572;2023-04-25T04:07:13;19.98;;;9.25;;
23642;SDS011;11998;55.788;37.572;2023-04-25T04:08:14;25.83;;;9.57;;
23642;SDS011;11998;55.788;37.572;2023-04-25T04:09:15;21.08;;;10.13;;
23642;SDS011;11998;55.788;37.572;2023-04-25T04:10:15;19.63;;;10.32;;
23642;SDS011;11998;55.788;37.572;2023-04-25T04:11:16;25.25;;;15.95;;
23642;SDS011;11998;55.788;37.572;2023-04-25T04:12:16;26.13;;;15.63;;
23642;SDS011;11998;55.788;37.572;2023-04-25T04:13:17;40.03;;;19.58;;
23642;SDS011;11998;55.788;37.572;2023-04-25T04:14:17;31.25;;;21.25;;
23642;SDS011;11998;55.788;37.572;2023-04-25T04:15:18;21.05;;;11.35;;
23642;SDS011;11998;55.788;37.572;2023-04-25T04:16:18;19.52;;;9.98;;
23642;SDS011;11998;55.788;37.572;2023-04-25T04:17:19;19.00;;;8.32;;
23642;SDS011;11998;55.788;37.572;2023-04-25T04:18:19;18.60;;;8.20;;
23642;SDS011;11998;55.788;37.572;2023-04-25T04:19:20;14.27;;;7.45;;
23642;SDS011;11998;55.788;37.572;2023-04-25T04:20:20;21.45;;;7.65;;
23642;SDS011;11998;55.788;37.572;2023-04-25T04:21:21;15.52;;;6.47;;
23642;SDS011;11998;55.788;37.572;2023-04-25T04:22:22;12.88;;;6.05;;
23642;SDS011;11998;55.788;37.572;2023-04-25T04:23:23;17.10;;;7.28;;
23642;SDS011;11998;55.788;37.572;2023-04-25T04:24:24;17.45;;;8.07;;
23642;SDS011;11998;55.788;37.572;2023-04-25T04:25:25;12.13;;;6.88;;
23642;SDS011;11998;55.788;37.572;2023-04-25T04:26:26;16.13;;;7.57;;
23642;SDS011;11998;55.788;37.572;2023-04-25T04:27:26;21.08;;;7.13;;
23642;SDS011;11998;55.788;37.572;2023-04-25T04:28:28;15.30;;;7.05;;
23642;SDS011;11998;55.788;37.572;2023-04-25T04:29:29;19.42;;;5.97;;
23642;SDS011;11998;55.788;37.572;2023-04-25T04:30:30;13.75;;;5.90;;
23642;SDS011;11998;55.788;37.572;2023-04-25T04:31:30;17.40;;;6.88;;
23642;SDS011;11998;55.788;37.572;2023-04-25T04:32:32;21.55;;;6.60;;
23642;SDS011;11998;55.788;37.572;2023-04-25T04:33:34;17.70;;;6.32;;
23642;SDS011;11998;55.788;37.572;2023-04-25T04:34:35;14.20;;;6.72;;
23642;SDS011;11998;55.788;37.572;2023-04-25T04:35:36;15.63;;;6.57;;
23642;SDS011;11998;55.788;37.572;2023-04-25T04:36:36;22.88;;;7.13;;
23642;SDS011;11998;55.788;37.572;2023-04-25T04:37:37;13.88;;;6.78;;
23642;SDS011;11998;55.788;37.572;2023-04-25T04:38:38;17.23;;;7.70;;
23642;SDS011;11998;55.788;37.572;2023-04-25T04:39:39;17.45;;;7.28;;
23642;SDS011;11998;55.788;37.572;2023-04-25T04:40:40;18.02;;;7.65;;
23642;SDS011;11998;55.788;37.572;2023-04-25T04:41:43;18.45;;;8.73;;
23642;SDS011;11998;55.788;37.572;2023-04-25T04:42:44;14.57;;;8.15;;
23642;SDS011;11998;55.788;37.572;2023-04-25T04:43:48;24.80;;;8.88;;
23642;SDS011;11998;55.788;37.572;2023-04-25T04:44:48;16.95;;;8.10;;
23642;SDS011;11998;55.788;37.572;2023-04-25T04:45:50;18.45;;;8.10;;
23642;SDS011;11998;55.788;37.572;2023-04-25T04:46:50;19.98;;;8.60;;
23642;SDS011;11998;55.788;37.572;2023-04-25T04:47:51;22.92;;;8.77;;
23642;SDS011;11998;55.788;37.572;2023-04-25T04:48:52;20.73;;;9.23;;
23642;SDS011;11998;55.788;37.572;2023-04-25T04:49:53;18.75;;;8.95;;
23642;SDS011;11998;55.788;37.572;2023-04-25T04:50:54;22.20;;;9.43;;
23642;SDS011;11998;55.788;37.572;2023-04-25T04:51:54;16.98;;;8.88;;
23642;SDS011;11998;55.788;37.572;2023-04-25T04:52:55;19.92;;;10.13;;
23642;SDS011;11998;55.788;37.572;2023-04-25T04:53:55;23.23;;;9.88;;
23642;SDS011;11998;55.788;37.572;2023-04-25T04:54:58;22.00;;;9.43;;
23642;SDS011;11998;55.788;37.572;2023-04-25T04:55:58;24.35;;;9.52;;
23642;SDS011;11998;55.788;37.572;2023-04-25T04:56:59;22.33;;;9.18;;
23642;SDS011;11998;55.788;37.572;2023-04-25T04:57:59;16.92;;;9.38;;
23642;SDS011;11998;55.788;37.572;2023-04-25T04:59:00;18.25;;;9.35;;
23642;SDS011;11998;55.788;37.572;2023-04-25T05:00:02;30.75;;;10.85;;
23642;SDS011;11998;55.788;37.572;2023-04-25T05:01:11;22.35;;;9.40;;
23642;SDS011;11998;55.788;37.572;2023-04-25T05:02:12;24.17;;;10.00;;
23642;SDS011;11998;55.788;37.572;2023-04-25T05:03:12;26.23;;;9.88;;
23642;SDS011;11998;55.788;37.572;2023-04-25T05:04:13;20.17;;;10.20;;
23642;SDS011;11998;55.788;37.572;2023-04-25T05:05:13;28.90;;;9.82;;
23642;SDS011;11998;55.788;37.572;2023-04-25T05:06:14;20.17;;;10.52;;
23642;SDS011;11998;55.788;37.572;2023-04-25T05:07:15;23.70;;;10.50;;
23642;SDS011;11998;55.788;37.572;2023-04-25T05:08:15;17.10;;;10.13;;
23642;SDS011;11998;55.788;37.572;2023-04-25T05:09:16;23.88;;;11.20;;
23642;SDS011;11998;55.788;37.572;2023-04-25T05:10:17;18.77;;;9.55;;
23642;SDS011;11998;55.788;37.572;2023-04-25T05:11:19;23.05;;;10.32;;
23642;SDS011;11998;55.788;37.572;2023-04-25T05:12:19;20.15;;;10.25;;
23642;SDS011;11998;55.788;37.572;2023-04-25T05:13:20;24.88;;;11.02;;
23642;SDS011;11998;55.788;37.572;2023-04-25T05:14:20;22.60;;;10.90;;
23642;SDS011;11998;55.788;37.572;2023-04-25T05:15:21;24.55;;;10.57;;
23642;SDS011;11998;55.788;37.572;2023-04-25T05:16:22;24.08;;;10.63;;
23642;SDS011;11998;55.788;37.572;2023-04-25T05:17:22;26.25;;;10.68;;
23642;SDS011;11998;55.788;37.572;2023-04-25T05:18:23;19.15;;;10.40;;
23642;SDS011;11998;55.788;37.572;2023-04-25T05:19:23;23.13;;;11.32;;
23642;SDS011;11998;55.788;37.572;2023-04-25T05:20:24;26.60;;;10.60;;
23642;SDS011;11998;55.788;37.572;2023-04-25T05:21:24;18.25;;;9.75;;
23642;SDS011;11998;55.788;37.572;2023-04-25T05:22:25;17.20;;;9.00;;
23642;SDS011;11998;55.788;37.572;2023-04-25T05:23:26;18.65;;;9.68;;
23642;SDS011;11998;55.788;37.572;2023-04-25T05:24:28;22.30;;;9.57;;
23642;SDS011;11998;55.788;37.572;2023-04-25T05:25:28;17.42;;;10.20;;
23642;SDS011;11998;55.788;37.572;2023-04-25T05:26:28;17.77;;;9.35;;
23642;SDS011;11998;55.788;37.572;2023-04-25T05:27:31;13.43;;;9.13;;
23642;SDS011;11998;55.788;37.572;2023-04-25T05:28:31;21.60;;;9.60;;
23642;SDS011;11998;55.788;37.572;2023-04-25T05:29:32;18.23;;;8.77;;
23642;SDS011;11998;55.788;37.572;2023-04-25T05:30:32;16.98;;;8.73;;
23642;SDS011;11998;55.788;37.572;2023-04-25T05:31:35;12.95;;;8.68;;
23642;SDS011;11998;55.788;37.572;2023-04-25T05:32:36;24.80;;;10.43;;
23642;SDS011;11998;55.788;37.572;2023-04-25T05:33:37;16.30;;;8.23;;
23642;SDS011;11998;55.788;37.572;2023-04-25T05:34:37;20.02;;;8.38;;
23642;SDS011;11998;55.788;37.572;2023-04-25T05:35:38;19.52;;;8.38;;
23642;SDS011;11998;55.788;37.572;2023-04-25T05:36:38;13.73;;;8.05;;
23642;SDS011;11998;55.788;37.572;2023-04-25T05:37:39;14.75;;;8.35;;
23642;SDS011;11998;55.788;37.572;2023-04-25T05:38:40;14.43;;;8.27;;
23642;SDS011;11998;55.788;37.572;2023-04-25T05:39:41;15.98;;;8.15;;
23642;SDS011;11998;55.788;37.572;2023-04-25T05:40:41;10.27;;;7.13;;
23642;SDS011;11998;55.788;37.572;2023-04-25T05:41:42;11.77;;;7.50;;
23642;SDS011;11998;55.788;37.572;2023-04-25T05:42:42;18.15;;;7.00;;
23642;SDS011;11998;55.788;37.572;2023-04-25T05:43:43;17.10;;;7.55;;
23642;SDS011;11998;55.788;37.572;2023-04-25T05:44:47;15.73;;;7.20;;
23642;SDS011;11998;55.788;37.572;2023-04-25T05:45:47;20.83;;;7.85;;
23642;SDS011;11998;55.788;37.572;2023-04-25T05:46:48;16.35;;;7.88;;
23642;SDS011;11998;55.788;37.572;2023-04-25T05:47:49;18.25;;;8.10;;
23642;SDS011;11998;55.788;37.572;2023-04-25T05:48:50;17.63;;;8.25;;
23642;SDS011;11998;55.788;37.572;2023-04-25T05:49:50;15.25;;;8.02;;
23642;SDS011;11998;55.788;37.572;2023-04-25T05:50:51;16.60;;;8.38;;
23642;SDS011;11998;55.788;37.572;2023-04-25T05:51:51;16.70;;;8.25;;
23642;SDS011;11998;55.788;37.572;2023-04-25T05:52:52;16.30;;;7.95;;
23642;SDS011;11998;55.788;37.572;2023-04-25T05:53:52;20.77;;;7.85;;
23642;SDS011;11998;55.788;37.572;2023-04-25T05:54:53;20.83;;;8.05;;
23642;SDS011;11998;55.788;37.572;2023-04-25T05:55:53;13.80;;;7.63;;